sensor_id;sensor_type;location;lat;lon;timestamp;pressure;altitude;pressure_sealevel;temperature;humidity
33506;BME280;19843;51.040;13.782;2023-09-19T00:00:21;99576.06;;;17.58;100.00
33506;BME280;19843;51.040;13.782;2023-09-19T00:02:55;99578.06;;;17.65;100.00
33506;BME280;19843;51.040;13.782;2023-09-19T00:05:23;99575.59;;;17.85;100.00
33506;BME280;19843;51.040;13.782;2023-09-19T00:07:52;99580.88;;;17.65;100.00
33506;BME280;19843;51.040;13.782;2023-09-19T00:10:21;99582.50;;;17.66;100.00
33506;BME280;19843;51.040;13.782;2023-09-19T00:12:52;99577.34;;;17.43;100.00
33506;BME280;19843;51.040;13.782;2023-09-19T00:15:21;99575.75;;;17.24;100.00
33506;BME280;19843;51.040;13.782;2023-09-19T00:17:49;99585.38;;;17.48;100.00
33506;BME280;19843;51.040;13.782;2023-09-19T00:20:18;99583.75;;;17.51;100.00
33506;BME280;19843;51.040;13.782;2023-09-19T00:22:49;99584.53;;;17.51;100.00
33506;BME280;19843;51.040;13.782;2023-09-19T00:25:18;99579.75;;;17.45;100.00
33506;BME280;19843;51.040;13.782;2023-09-19T00:27:46;99583.31;;;17.66;100.00
33506;BME280;19843;51.040;13.782;2023-09-19T00:30:17;99563.13;;;17.79;100.00
33506;BME280;19843;51.040;13.782;2023-09-19T00:32:48;99574.81;;;17.77;100.00
33506;BME280;19843;51.040;13.782;2023-09-19T00:35:21;99572.06;;;17.49;100.00
33506;BME280;19843;51.040;13.782;2023-09-19T00:37:50;99562.34;;;17.60;100.00
33506;BME280;19843;51.040;13.782;2023-09-19T00:40:17;99560.75;;;17.56;100.00
33506;BME280;19843;51.040;13.782;2023-09-19T00:42:46;99566.84;;;17.40;100.00
33506;BME280;19843;51.040;13.782;2023-09-19T00:45:17;99564.44;;;17.38;100.00
33506;BME280;19843;51.040;13.782;2023-09-19T00:47:48;99553.97;;;17.43;100.00
33506;BME280;19843;51.040;13.782;2023-09-19T00:50:17;99554.34;;;17.48;100.00
33506;BME280;19843;51.040;13.782;2023-09-19T00:52:46;99569.25;;;17.41;100.00
33506;BME280;19843;51.040;13.782;2023-09-19T00:55:16;99562.81;;;17.45;100.00
33506;BME280;19843;51.040;13.782;2023-09-19T00:57:46;99554.72;;;17.54;100.00
33506;BME280;19843;51.040;13.782;2023-09-19T01:00:18;99559.19;;;17.37;100.00
33506;BME280;19843;51.040;13.782;2023-09-19T01:02:46;99562.78;;;17.52;100.00
33506;BME280;19843;51.040;13.782;2023-09-19T01:05:14;99559.19;;;17.44;100.00
33506;BME280;19843;51.040;13.782;2023-09-19T01:07:43;99550.00;;;17.15;100.00
33506;BME280;19843;51.040;13.782;2023-09-19T01:10:14;99560.00;;;17.48;100.00
33506;BME280;19843;51.040;13.782;2023-09-19T01:12:52;99560.84;;;17.31;100.00
33506;BME280;19843;51.040;13.782;2023-09-19T01:15:32;99569.66;;;17.44;100.00
33506;BME280;19843;51.040;13.782;2023-09-19T01:18:20;99569.25;;;17.45;100.00
33506;BME280;19843;51.040;13.782;2023-09-19T01:20:57;99575.28;;;17.54;100.00
33506;BME280;19843;51.040;13.782;2023-09-19T01:23:42;99576.53;;;17.43;100.00
33506;BME280;19843;51.040;13.782;2023-09-19T01:26:29;99574.56;;;17.07;100.00
33506;BME280;19843;51.040;13.782;2023-09-19T01:29:12;99579.78;;;17.12;100.00
33506;BME280;19843;51.040;13.782;2023-09-19T01:31:49;99578.22;;;17.04;100.00
33506;BME280;19843;51.040;13.782;2023-09-19T01:34:20;99590.28;;;17.05;100.00
33506;BME280;19843;51.040;13.782;2023-09-19T01:36:47;99583.84;;;16.97;100.00
33506;BME280;19843;51.040;13.782;2023-09-19T01:39:15;99585.41;;;17.27;100.00
33506;BME280;19843;51.040;13.782;2023-09-19T01:41:51;99599.16;;;16.82;100.00
33506;BME280;19843;51.040;13.782;2023-09-19T01:44:26;99597.53;;;16.92;100.00
33506;BME280;19843;51.040;13.782;2023-09-19T01:47:00;99583.84;;;17.04;100.00
33506;BME280;19843;51.040;13.782;2023-09-19T01:49:37;99587.84;;;17.28;100.00
33506;BME280;19843;51.040;13.782;2023-09-19T01:52:11;99576.94;;;17.27;100.00
33506;BME280;19843;51.040;13.782;2023-09-19T01:54:48;99570.53;;;17.08;100.00
33506;BME280;19843;51.040;13.782;2023-09-19T01:57:24;99576.16;;;16.58;100.00
33506;BME280;19843;51.040;13.782;2023-09-19T01:59:59;99582.63;;;17.05;100.00
33506;BME280;19843;51.040;13.782;2023-09-19T02:02:34;99577.81;;;17.02;100.00
33506;BME280;19843;51.040;13.782;2023-09-19T02:05:03;99587.44;;;17.23;100.00
33506;BME280;19843;51.040;13.782;2023-09-19T02:07:31;99602.34;;;17.27;100.00
33506;BME280;19843;51.040;13.782;2023-09-19T02:09:59;99600.78;;;16.86;100.00
33506;BME280;19843;51.040;13.782;2023-09-19T02:12:27;99594.31;;;17.07;100.00
33506;BME280;19843;51.040;13.782;2023-09-19T02:14:54;99598.34;;;17.10;100.00
33506;BME280;19843;51.040;13.782;2023-09-19T02:17:23;99601.13;;;16.67;100.00
33506;BME280;19843;51.040;13.782;2023-09-19T02:19:54;99606.00;;;17.09;100.00
33506;BME280;19843;51.040;13.782;2023-09-19T02:22:22;99595.09;;;17.22;100.00
33506;BME280;19843;51.040;13.782;2023-09-19T02:24:51;99594.28;;;17.25;100.00
33506;BME280;19843;51.040;13.782;2023-09-19T02:27:20;99607.63;;;17.14;100.00
33506;BME280;19843;51.040;13.782;2023-09-19T02:29:47;99607.59;;;17.10;100.00
33506;BME280;19843;51.040;13.782;2023-09-19T02:32:16;99612.03;;;17.33;100.00
33506;BME280;19843;51.040;13.782;2023-09-19T02:34:45;99613.22;;;17.35;100.00
33506;BME280;19843;51.040;13.782;2023-09-19T02:37:14;99610.81;;;17.09;100.00
33506;BME280;19843;51.040;13.782;2023-09-19T02:39:42;99612.41;;;17.17;100.00
33506;BME280;19843;51.040;13.782;2023-09-19T02:42:10;99614.84;;;17.26;100.00
33506;BME280;19843;51.040;13.782;2023-09-19T02:44:37;99619.28;;;16.87;100.00
33506;BME280;19843;51.040;13.782;2023-09-19T02:47:06;99624.53;;;17.07;100.00
33506;BME280;19843;51.040;13.782;2023-09-19T02:49:34;99622.50;;;17.14;100.00
33506;BME280;19843;51.040;13.782;2023-09-19T02:52:03;99618.88;;;17.03;100.00
33506;BME280;19843;51.040;13.782;2023-09-19T02:54:32;99621.72;;;16.82;100.00
33506;BME280;19843;51.040;13.782;2023-09-19T02:57:00;99621.72;;;17.14;100.00
33506;BME280;19843;51.040;13.782;2023-09-19T02:59:31;99625.72;;;17.24;100.00
33506;BME280;19843;51.040;13.782;2023-09-19T03:01:59;99620.47;;;17.26;100.00
33506;BME280;19843;51.040;13.782;2023-09-19T03:04:29;99621.72;;;16.82;100.00
33506;BME280;19843;51.040;13.782;2023-09-19T03:06:57;99638.22;;;16.91;100.00
33506;BME280;19843;51.040;13.782;2023-09-19T03:09:26;99637.44;;;17.04;100.00
33506;BME280;19843;51.040;13.782;2023-09-19T03:11:55;99639.38;;;16.57;100.00
33506;BME280;19843;51.040;13.782;2023-09-19T03:14:23;99636.59;;;16.89;100.00
33506;BME280;19843;51.040;13.782;2023-09-19T03:16:51;99640.22;;;16.72;100.00
33506;BME280;19843;51.040;13.782;2023-09-19T03:19:19;99649.50;;;16.76;100.00
33506;BME280;19843;51.040;13.782;2023-09-19T03:21:49;99649.09;;;17.06;100.00
33506;BME280;19843;51.040;13.782;2023-09-19T03:24:17;99657.16;;;17.01;100.00
33506;BME280;19843;51.040;13.782;2023-09-19T03:26:45;99659.16;;;17.14;100.00
33506;BME280;19843;51.040;13.782;2023-09-19T03:29:14;99659.16;;;17.11;100.00
33506;BME280;19843;51.040;13.782;2023-09-19T03:31:43;99665.63;;;17.19;100.00
33506;BME280;19843;51.040;13.782;2023-09-19T03:34:12;99653.91;;;17.13;100.00
33506;BME280;19843;51.040;13.782;2023-09-19T03:36:39;99651.50;;;16.97;100.00
33506;BME280;19843;51.040;13.782;2023-09-19T03:39:07;99658.34;;;16.96;100.00
33506;BME280;19843;51.040;13.782;2023-09-19T03:41:35;99659.97;;;17.08;100.00
33506;BME280;19843;51.040;13.782;2023-09-19T03:44:04;99651.91;;;17.06;100.00
33506;BME280;19843;51.040;13.782;2023-09-19T03:46:33;99649.91;;;17.10;100.00
33506;BME280;19843;51.040;13.782;2023-09-19T03:49:02;99657.94;;;17.33;100.00
33506;BME280;19843;51.040;13.782;2023-09-19T03:51:30;99655.94;;;17.30;100.00
33506;BME280;19843;51.040;13.782;2023-09-19T03:53:57;99653.13;;;17.20;100.00
33506;BME280;19843;51.040;13.782;2023-09-19T03:56:25;99664.81;;;17.11;100.00
33506;BME280;19843;51.040;13.782;2023-09-19T03:58:52;99645.88;;;17.08;100.00
33506;BME280;19843;51.040;13.782;2023-09-19T04:01:20;99656.72;;;17.13;100.00
33506;BME280;19843;51.040;13.782;2023-09-19T04:03:49;99658.34;;;17.07;100.00
33506;BME280;19843;51.040;13.782;2023-09-19T04:06:19;99670.03;;;17.09;100.00
33506;BME280;19843;51.040;13.782;2023-09-19T04:08:47;99667.22;;;17.20;100.00
33506;BME280;19843;51.040;13.782;2023-09-19T04:11:15;99668.41;;;16.97;100.00
33506;BME280;19843;51.040;13.782;2023-09-19T04:13:42;99674.06;;;17.04;100.00
33506;BME280;19843;51.040;13.782;2023-09-19T04:16:10;99673.25;;;17.11;100.00
33506;BME280;19843;51.040;13.782;2023-09-19T04:18:38;99676.50;;;17.09;100.00
33506;BME280;19843;51.040;13.782;2023-09-19T04:21:07;99689.38;;;17.03;100.00
33506;BME280;19843;51.040;13.782;2023-09-19T04:23:35;99688.97;;;17.01;100.00
33506;BME280;19843;51.040;13.782;2023-09-19T04:26:02;99679.31;;;17.09;100.00
33506;BME280;19843;51.040;13.782;2023-09-19T04:28:31;99685.28;;;16.76;100.00
33506;BME280;19843;51.040;13.782;2023-09-19T04:31:00;99676.88;;;16.94;100.00
33506;BME280;19843;51.040;13.782;2023-09-19T04:33:28;99673.59;;;16.63;100.00
33506;BME280;19843;51.040;13.782;2023-09-19T04:35:55;99681.72;;;17.04;100.00
33506;BME280;19843;51.040;13.782;2023-09-19T04:38:34;99672.06;;;17.12;100.00
33506;BME280;19843;51.040;13.782;2023-09-19T04:41:02;99684.03;;;16.55;100.00
33506;BME280;19843;51.040;13.782;2023-09-19T04:43:30;99690.13;;;16.79;100.00
33506;BME280;19843;51.040;13.782;2023-09-19T04:45:57;99692.56;;;16.95;100.00
33506;BME280;19843;51.040;13.782;2023-09-19T04:48:26;99702.22;;;16.90;100.00
33506;BME280;19843;51.040;13.782;2023-09-19T04:50:55;99694.19;;;16.92;100.00
33506;BME280;19843;51.040;13.782;2023-09-19T04:53:22;99692.16;;;16.89;100.00
33506;BME280;19843;51.040;13.782;2023-09-19T04:55:52;99690.56;;;16.99;100.00
33506;BME280;19843;51.040;13.782;2023-09-19T04:58:22;99696.22;;;16.95;100.00
33506;BME280;19843;51.040;13.782;2023-09-19T05:00:49;99703.06;;;17.05;100.00
33506;BME280;19843;51.040;13.782;2023-09-19T05:03:18;99699.03;;;17.13;100.00
33506;BME280;19843;51.040;13.782;2023-09-19T05:05:46;99703.47;;;17.32;100.00
33506;BME280;19843;51.040;13.782;2023-09-19T05:08:14;99715.56;;;17.43;100.00
33506;BME280;19843;51.040;13.782;2023-09-19T05:10:41;99720.81;;;17.48;100.00
33506;BME280;19843;51.040;13.782;2023-09-19T05:13:10;99718.78;;;17.45;100.00
33506;BME280;19843;51.040;13.782;2023-09-19T05:15:38;99733.31;;;17.29;100.00
33506;BME280;19843;51.040;13.782;2023-09-19T05:18:06;99738.53;;;17.41;100.00
33506;BME280;19843;51.040;13.782;2023-09-19T05:20:34;99728.06;;;17.49;100.00
33506;BME280;19843;51.040;13.782;2023-09-19T05:23:05;99749.00;;;17.20;100.00
33506;BME280;19843;51.040;13.782;2023-09-19T05:25:36;99743.38;;;17.30;100.00
33506;BME280;19843;51.040;13.782;2023-09-19T05:28:05;99744.97;;;17.28;100.00
33506;BME280;19843;51.040;13.782;2023-09-19T05:30:35;99736.91;;;17.37;100.00
33506;BME280;19843;51.040;13.782;2023-09-19T05:33:05;99739.72;;;17.51;100.00
33506;BME280;19843;51.040;13.782;2023-09-19T05:35:33;99744.59;;;17.54;100.00
33506;BME280;19843;51.040;13.782;2023-09-19T05:38:03;99737.72;;;17.59;100.00
33506;BME280;19843;51.040;13.782;2023-09-19T05:40:32;99738.53;;;17.59;100.00
33506;BME280;19843;51.040;13.782;2023-09-19T05:42:59;99742.56;;;17.69;100.00
33506;BME280;19843;51.040;13.782;2023-09-19T05:45:27;99748.63;;;17.43;100.00
33506;BME280;19843;51.040;13.782;2023-09-19T05:48:07;99749.81;;;17.66;100.00
33506;BME280;19843;51.040;13.782;2023-09-19T05:50:35;99751.03;;;17.73;100.00
33506;BME280;19843;51.040;13.782;2023-09-19T05:53:03;99759.53;;;17.76;99.88
33506;BME280;19843;51.040;13.782;2023-09-19T05:55:31;99760.69;;;17.89;100.00
33506;BME280;19843;51.040;13.782;2023-09-19T05:57:59;99760.31;;;17.77;100.00
33506;BME280;19843;51.040;13.782;2023-09-19T06:00:26;99765.16;;;17.87;100.00
33506;BME280;19843;51.040;13.782;2023-09-19T06:02:57;99769.13;;;18.04;99.72
33506;BME280;19843;51.040;13.782;2023-09-19T06:05:27;99766.69;;;18.20;97.30
33506;BME280;19843;51.040;13.782;2023-09-19T06:07:56;99769.91;;;18.29;98.05
33506;BME280;19843;51.040;13.782;2023-09-19T06:10:27;99757.41;;;18.23;98.92
33506;BME280;19843;51.040;13.782;2023-09-19T06:12:55;99764.63;;;18.38;98.95
33506;BME280;19843;51.040;13.782;2023-09-19T06:15:24;99772.25;;;18.52;96.38
33506;BME280;19843;51.040;13.782;2023-09-19T06:17:53;99772.72;;;18.33;97.61
33506;BME280;19843;51.040;13.782;2023-09-19T06:20:22;99779.94;;;18.41;97.45
33506;BME280;19843;51.040;13.782;2023-09-19T06:22:54;99784.34;;;18.49;97.44
33506;BME280;19843;51.040;13.782;2023-09-19T06:25:21;99793.28;;;18.30;97.24
33506;BME280;19843;51.040;13.782;2023-09-19T06:27:51;99795.69;;;18.42;95.22
33506;BME280;19843;51.040;13.782;2023-09-19T06:30:21;99802.91;;;18.47;90.78
33506;BME280;19843;51.040;13.782;2023-09-19T06:32:49;99804.13;;;18.49;94.39
33506;BME280;19843;51.040;13.782;2023-09-19T06:35:22;99806.44;;;18.83;92.98
33506;BME280;19843;51.040;13.782;2023-09-19T06:37:53;99808.06;;;18.84;92.95
33506;BME280;19843;51.040;13.782;2023-09-19T06:40:24;99807.31;;;18.73;94.77
33506;BME280;19843;51.040;13.782;2023-09-19T06:42:53;99816.66;;;18.48;92.94
33506;BME280;19843;51.040;13.782;2023-09-19T06:45:20;99816.22;;;18.57;93.09
33506;BME280;19843;51.040;13.782;2023-09-19T06:47:49;99826.16;;;18.97;91.66
33506;BME280;19843;51.040;13.782;2023-09-19T06:50:19;99828.56;;;19.06;91.07
33506;BME280;19843;51.040;13.782;2023-09-19T06:52:49;99829.72;;;19.12;91.18
33506;BME280;19843;51.040;13.782;2023-09-19T06:55:20;99838.56;;;19.25;89.44
33506;BME280;19843;51.040;13.782;2023-09-19T06:57:48;99832.63;;;19.05;90.12
33506;BME280;19843;51.040;13.782;2023-09-19T07:00:16;99841.81;;;19.19;89.52
33506;BME280;19843;51.040;13.782;2023-09-19T07:02:45;99842.88;;;19.47;87.51
33506;BME280;19843;51.040;13.782;2023-09-19T07:05:13;99847.16;;;19.73;86.04
33506;BME280;19843;51.040;13.782;2023-09-19T07:07:40;99858.19;;;19.53;84.98
33506;BME280;19843;51.040;13.782;2023-09-19T07:10:09;99852.78;;;19.77;83.36
33506;BME280;19843;51.040;13.782;2023-09-19T07:12:38;99852.41;;;20.19;83.78
33506;BME280;19843;51.040;13.782;2023-09-19T07:15:08;99849.13;;;20.25;82.80
33506;BME280;19843;51.040;13.782;2023-09-19T07:17:36;99859.16;;;20.33;83.73
33506;BME280;19843;51.040;13.782;2023-09-19T07:20:04;99864.16;;;19.69;82.50
33506;BME280;19843;51.040;13.782;2023-09-19T07:22:34;99876.59;;;19.83;81.93
33506;BME280;19843;51.040;13.782;2023-09-19T07:25:03;99884.09;;;19.52;80.02
33506;BME280;19843;51.040;13.782;2023-09-19T07:27:30;99882.16;;;19.38;79.93
33506;BME280;19843;51.040;13.782;2023-09-19T07:29:59;99900.84;;;19.84;78.11
33506;BME280;19843;51.040;13.782;2023-09-19T07:32:27;99894.47;;;19.73;76.02
33506;BME280;19843;51.040;13.782;2023-09-19T07:34:54;99892.91;;;19.68;77.10
33506;BME280;19843;51.040;13.782;2023-09-19T07:37:22;99891.28;;;19.71;74.70
33506;BME280;19843;51.040;13.782;2023-09-19T07:39:52;99900.16;;;19.73;73.48
33506;BME280;19843;51.040;13.782;2023-09-19T07:42:20;99891.63;;;19.80;68.78
33506;BME280;19843;51.040;13.782;2023-09-19T07:44:47;99896.09;;;20.22;69.16
33506;BME280;19843;51.040;13.782;2023-09-19T07:47:18;99910.91;;;19.92;68.20
33506;BME280;19843;51.040;13.782;2023-09-19T07:49:47;99899.94;;;19.98;68.08
33506;BME280;19843;51.040;13.782;2023-09-19T07:52:15;99902.03;;;20.38;66.13
33506;BME280;19843;51.040;13.782;2023-09-19T07:54:42;99900.38;;;20.41;65.89
33506;BME280;19843;51.040;13.782;2023-09-19T07:57:10;99905.78;;;20.25;66.15
33506;BME280;19843;51.040;13.782;2023-09-19T07:59:38;99899.66;;;20.75;67.66
33506;BME280;19843;51.040;13.782;2023-09-19T08:02:08;99912.03;;;20.54;67.68
33506;BME280;19843;51.040;13.782;2023-09-19T08:04:43;99909.53;;;20.59;67.24
33506;BME280;19843;51.040;13.782;2023-09-19T08:07:13;99906.25;;;20.19;66.23
33506;BME280;19843;51.040;13.782;2023-09-19T08:09:40;99892.28;;;20.43;67.02
33506;BME280;19843;51.040;13.782;2023-09-19T08:12:12;99897.38;;;20.96;64.99
33506;BME280;19843;51.040;13.782;2023-09-19T08:14:40;99900.34;;;20.86;63.40
33506;BME280;19843;51.040;13.782;2023-09-19T08:17:08;99908.97;;;20.34;66.10
33506;BME280;19843;51.040;13.782;2023-09-19T08:19:36;99917.34;;;20.44;64.69
33506;BME280;19843;51.040;13.782;2023-09-19T08:22:10;99925.28;;;20.64;64.79
33506;BME280;19843;51.040;13.782;2023-09-19T08:24:55;99914.84;;;20.57;64.56
33506;BME280;19843;51.040;13.782;2023-09-19T08:27:24;99918.69;;;20.74;63.13
33506;BME280;19843;51.040;13.782;2023-09-19T08:29:53;99921.03;;;21.17;61.38
33506;BME280;19843;51.040;13.782;2023-09-19T08:32:20;99918.34;;;21.06;60.03
33506;BME280;19843;51.040;13.782;2023-09-19T08:34:50;99920.78;;;21.38;60.09
33506;BME280;19843;51.040;13.782;2023-09-19T08:37:19;99918.59;;;21.50;59.44
33506;BME280;19843;51.040;13.782;2023-09-19T08:39:48;99920.94;;;21.85;57.77
33506;BME280;19843;51.040;13.782;2023-09-19T08:42:16;99922.78;;;22.69;55.79
33506;BME280;19843;51.040;13.782;2023-09-19T08:44:46;99940.13;;;22.05;57.10
33506;BME280;19843;51.040;13.782;2023-09-19T08:47:15;99942.47;;;22.60;55.54
33506;BME280;19843;51.040;13.782;2023-09-19T08:49:52;99932.13;;;21.69;57.89
33506;BME280;19843;51.040;13.782;2023-09-19T08:52:27;99931.63;;;21.47;58.06
33506;BME280;19843;51.040;13.782;2023-09-19T08:54:59;99937.44;;;21.36;58.73
33506;BME280;19843;51.040;13.782;2023-09-19T08:57:33;99928.38;;;21.76;58.18
33506;BME280;19843;51.040;13.782;2023-09-19T09:00:02;99939.16;;;21.88;57.35
33506;BME280;19843;51.040;13.782;2023-09-19T09:02:33;99940.38;;;21.87;59.29
33506;BME280;19843;51.040;13.782;2023-09-19T09:05:01;99935.22;;;21.78;58.37
33506;BME280;19843;51.040;13.782;2023-09-19T09:07:35;99932.78;;;22.54;57.31
33506;BME280;19843;51.040;13.782;2023-09-19T09:10:04;99932.41;;;22.75;57.67
33506;BME280;19843;51.040;13.782;2023-09-19T09:12:32;99939.66;;;22.80;54.25
33506;BME280;19843;51.040;13.782;2023-09-19T09:15:00;99934.81;;;23.00;55.74
33506;BME280;19843;51.040;13.782;2023-09-19T09:17:30;99929.00;;;23.44;52.93
33506;BME280;19843;51.040;13.782;2023-09-19T09:19:58;99937.72;;;22.73;53.69
33506;BME280;19843;51.040;13.782;2023-09-19T09:22:26;99943.13;;;23.11;52.22
33506;BME280;19843;51.040;13.782;2023-09-19T09:24:56;99937.22;;;22.08;53.70
33506;BME280;19843;51.040;13.782;2023-09-19T09:27:24;99932.06;;;22.50;53.34
33506;BME280;19843;51.040;13.782;2023-09-19T09:29:53;99933.72;;;22.71;53.37
33506;BME280;19843;51.040;13.782;2023-09-19T09:32:23;99928.09;;;23.11;51.45
33506;BME280;19843;51.040;13.782;2023-09-19T09:34:53;99937.06;;;22.89;52.87
33506;BME280;19843;51.040;13.782;2023-09-19T09:37:25;99946.91;;;22.38;53.50
33506;BME280;19843;51.040;13.782;2023-09-19T09:39:58;99954.16;;;21.61;57.00
33506;BME280;19843;51.040;13.782;2023-09-19T09:42:45;99955.66;;;21.69;55.35
33506;BME280;19843;51.040;13.782;2023-09-19T09:45:16;99948.97;;;21.56;55.94
33506;BME280;19843;51.040;13.782;2023-09-19T09:47:47;99954.72;;;21.80;56.15
33506;BME280;19843;51.040;13.782;2023-09-19T09:50:25;99957.56;;;21.80;57.31
33506;BME280;19843;51.040;13.782;2023-09-19T09:52:56;99964.50;;;22.29;54.19
33506;BME280;19843;51.040;13.782;2023-09-19T09:55:57;99958.97;;;22.22;52.18
33506;BME280;19843;51.040;13.782;2023-09-19T09:58:25;99949.63;;;22.45;51.69
33506;BME280;19843;51.040;13.782;2023-09-19T10:00:56;99951.03;;;22.80;51.52
33506;BME280;19843;51.040;13.782;2023-09-19T10:03:32;99960.94;;;22.25;53.55
33506;BME280;19843;51.040;13.782;2023-09-19T10:06:07;99953.50;;;22.78;53.27
33506;BME280;19843;51.040;13.782;2023-09-19T10:08:58;99951.50;;;22.55;52.60
33506;BME280;19843;51.040;13.782;2023-09-19T10:11:32;99955.59;;;22.74;52.37
33506;BME280;19843;51.040;13.782;2023-09-19T10:14:04;99957.78;;;22.66;51.13
33506;BME280;19843;51.040;13.782;2023-09-19T10:16:34;99950.59;;;22.82;52.36
33506;BME280;19843;51.040;13.782;2023-09-19T10:19:07;99943.13;;;23.11;50.72
33506;BME280;19843;51.040;13.782;2023-09-19T10:21:36;99952.91;;;22.90;52.38
33506;BME280;19843;51.040;13.782;2023-09-19T10:24:07;99951.88;;;23.60;52.19
33506;BME280;19843;51.040;13.782;2023-09-19T10:26:37;99951.81;;;23.24;52.56
33506;BME280;19843;51.040;13.782;2023-09-19T10:29:10;99957.78;;;22.90;51.50
33506;BME280;19843;51.040;13.782;2023-09-19T10:31:38;99959.13;;;22.82;51.65
33506;BME280;19843;51.040;13.782;2023-09-19T10:34:08;99945.59;;;23.09;51.43
33506;BME280;19843;51.040;13.782;2023-09-19T10:36:37;99964.81;;;22.58;52.46
33506;BME280;19843;51.040;13.782;2023-09-19T10:39:08;99947.16;;;23.14;50.68
33506;BME280;19843;51.040;13.782;2023-09-19T10:41:40;99943.84;;;23.15;50.57
33506;BME280;19843;51.040;13.782;2023-09-19T10:44:08;99957.94;;;24.64;50.54
33506;BME280;19843;51.040;13.782;2023-09-19T10:46:36;99947.94;;;23.90;48.98
33506;BME280;19843;51.040;13.782;2023-09-19T10:49:04;99950.41;;;24.41;49.02
33506;BME280;19843;51.040;13.782;2023-09-19T10:51:40;99947.09;;;24.59;48.57
33506;BME280;19843;51.040;13.782;2023-09-19T10:54:11;99946.16;;;23.40;50.36
33506;BME280;19843;51.040;13.782;2023-09-19T10:56:46;99951.44;;;23.98;48.68
33506;BME280;19843;51.040;13.782;2023-09-19T10:59:16;99947.78;;;24.14;47.52
33506;BME280;19843;51.040;13.782;2023-09-19T11:01:46;99943.19;;;23.47;48.09
33506;BME280;19843;51.040;13.782;2023-09-19T11:04:22;99955.09;;;23.22;47.54
33506;BME280;19843;51.040;13.782;2023-09-19T11:07:04;99953.41;;;23.25;49.17
33506;BME280;19843;51.040;13.782;2023-09-19T11:09:43;99946.50;;;23.62;46.35
33506;BME280;19843;51.040;13.782;2023-09-19T11:12:47;99924.53;;;24.48;47.18
33506;BME280;19843;51.040;13.782;2023-09-19T11:18:57;99932.03;;;24.42;44.24
33506;BME280;19843;51.040;13.782;2023-09-19T11:21:52;99927.38;;;25.10;43.75
33506;BME280;19843;51.040;13.782;2023-09-19T11:24:31;99931.56;;;23.94;44.54
33506;BME280;19843;51.040;13.782;2023-09-19T11:27:13;99939.59;;;24.32;45.32
33506;BME280;19843;51.040;13.782;2023-09-19T11:29:43;99940.56;;;25.03;42.27
33506;BME280;19843;51.040;13.782;2023-09-19T11:32:11;99940.13;;;24.27;42.62
33506;BME280;19843;51.040;13.782;2023-09-19T11:34:47;99942.38;;;23.67;42.99
33506;BME280;19843;51.040;13.782;2023-09-19T11:40:26;99939.25;;;24.14;42.48
33506;BME280;19843;51.040;13.782;2023-09-19T11:42:54;99945.94;;;24.07;43.89
33506;BME280;19843;51.040;13.782;2023-09-19T11:46:01;99948.41;;;23.69;44.65
33506;BME280;19843;51.040;13.782;2023-09-19T11:48:29;99934.69;;;24.16;43.38
33506;BME280;19843;51.040;13.782;2023-09-19T11:50:58;99935.94;;;24.32;43.12
33506;BME280;19843;51.040;13.782;2023-09-19T11:53:31;99940.94;;;24.60;42.93
33506;BME280;19843;51.040;13.782;2023-09-19T11:56:05;99939.19;;;24.50;43.54
33506;BME280;19843;51.040;13.782;2023-09-19T11:58:37;99935.75;;;23.90;43.13
33506;BME280;19843;51.040;13.782;2023-09-19T12:01:06;99942.06;;;23.61;46.22
33506;BME280;19843;51.040;13.782;2023-09-19T12:03:42;99945.06;;;23.74;44.27
33506;BME280;19843;51.040;13.782;2023-09-19T12:06:16;99930.81;;;23.74;42.91
33506;BME280;19843;51.040;13.782;2023-09-19T12:08:44;99931.13;;;23.60;44.40
33506;BME280;19843;51.040;13.782;2023-09-19T12:11:14;99933.94;;;23.23;45.43
33506;BME280;19843;51.040;13.782;2023-09-19T12:13:43;99926.06;;;24.04;45.19
33506;BME280;19843;51.040;13.782;2023-09-19T12:16:16;99929.19;;;23.73;44.40
33506;BME280;19843;51.040;13.782;2023-09-19T12:18:45;99935.75;;;22.94;45.33
33506;BME280;19843;51.040;13.782;2023-09-19T12:21:28;99935.09;;;23.06;46.63
33506;BME280;19843;51.040;13.782;2023-09-19T12:24:09;99933.53;;;23.21;46.61
33506;BME280;19843;51.040;13.782;2023-09-19T12:26:40;99935.09;;;23.26;47.91
33506;BME280;19843;51.040;13.782;2023-09-19T12:29:13;99938.25;;;23.32;47.41
33506;BME280;19843;51.040;13.782;2023-09-19T12:31:48;99938.41;;;23.97;48.18
33506;BME280;19843;51.040;13.782;2023-09-19T12:34:19;99942.63;;;24.09;46.73
33506;BME280;19843;51.040;13.782;2023-09-19T12:36:48;99927.91;;;23.58;46.74
33506;BME280;19843;51.040;13.782;2023-09-19T12:39:23;99932.44;;;23.35;45.68
33506;BME280;19843;51.040;13.782;2023-09-19T12:41:51;99934.56;;;23.51;47.05
33506;BME280;19843;51.040;13.782;2023-09-19T12:44:20;99929.97;;;24.10;47.15
33506;BME280;19843;51.040;13.782;2023-09-19T12:46:50;99926.53;;;23.66;47.25
33506;BME280;19843;51.040;13.782;2023-09-19T12:49:21;99933.75;;;23.31;47.02
33506;BME280;19843;51.040;13.782;2023-09-19T12:51:54;99937.94;;;23.46;46.85
33506;BME280;19843;51.040;13.782;2023-09-19T12:54:25;99927.28;;;23.50;46.73
33506;BME280;19843;51.040;13.782;2023-09-19T12:56:53;99924.16;;;24.30;46.14
33506;BME280;19843;51.040;13.782;2023-09-19T12:59:29;99931.84;;;24.00;47.10
33506;BME280;19843;51.040;13.782;2023-09-19T13:02:08;99921.22;;;23.84;46.81
33506;BME280;19843;51.040;13.782;2023-09-19T13:04:52;99928.72;;;23.38;48.09
33506;BME280;19843;51.040;13.782;2023-09-19T13:07:41;99929.66;;;23.51;48.21
33506;BME280;19843;51.040;13.782;2023-09-19T13:10:13;99942.22;;;23.74;47.64